<?xml version="1.0" encoding="UTF-8" standalone="no" ?>
<gpx xmlns="http://www.topografix.com/GPX/1/1" xmlns:xsi="http://www.w3.org/2001/XMLSchema-instance" xsi:schemaLocation="http://www.topografix.com/GPX/1/1 http://www.topografix.com/GPX/1/1/gpx.xsd" version="1.1" creator="VisuGPX - https://www.visugpx.com">
  <metadata>
    <name>mariol 25 kms Titis</name>
    <desc><![CDATA[Rando au depart de mariol joli parcours concocté par notre Titiss]]></desc>
  </metadata>
  <trk>
    <name><![CDATA[2013-08-21 07:55]]></name>
    <desc><![CDATA[<h1>OruxMaps</h1><br /><hr align="center" width="480" style="height: 2px; width: 517px"/><h2>Nom: 2013-08-21 07:55</h2><br /><p>Temps de départ: 08/21/2013 07:55</p><p>Temps d'arrivée: 08/21/2013 10:47</p><p>Distance: 24,2 km (02:52)</p><p>Temps déplacement: 01:57</p><p>Vitesse moyenne: 8,4 km/h</p><p>Vitesse moyenne: 12,3 km/h</p><p>Vitess Max.: 38 km/h</p><p>Altitude minimale: 299 m</p><p>Altitude maximale: 586 m</p><p>Vitesse d'élévation: 530,4 m/h</p><p>Vitesse de descente: -937,9 m/h</p><p>Gain Altitude: 788 m</p><p>Perte Altitude: -797 m</p><p>Temps d'élévation: 01:29</p><p>Temps de descente: 00:51</p><hr align="center" width="480" style="height: 2px; width: 517px"/>]]></desc>
    <trkseg>
      <trkpt lat="46.02121" lon="3.49606">
        <ele>311.55</ele>
        <time>2013-08-21T05:55:38Z</time>
      </trkpt>
      <trkpt lat="46.02083" lon="3.49696">
        <ele>299.55</ele>
        <time>2013-08-21T05:59:28Z</time>
      </trkpt>
      <trkpt lat="46.0206" lon="3.49794">
        <ele>299.55</ele>
        <time>2013-08-21T05:59:56Z</time>
      </trkpt>
      <trkpt lat="46.02071" lon="3.499">
        <ele>301.31</ele>
        <time>2013-08-21T06:00:23Z</time>
      </trkpt>
      <trkpt lat="46.02097" lon="3.49998">
        <ele>303.73</ele>
        <time>2013-08-21T06:00:50Z</time>
      </trkpt>
      <trkpt lat="46.0211" lon="3.50101">
        <ele>304.55</ele>
        <time>2013-08-21T06:01:14Z</time>
      </trkpt>
      <trkpt lat="46.02112" lon="3.50209">
        <ele>305.54</ele>
        <time>2013-08-21T06:01:39Z</time>
      </trkpt>
      <trkpt lat="46.02087" lon="3.50307">
        <ele>309.82</ele>
        <time>2013-08-21T06:02:07Z</time>
      </trkpt>
      <trkpt lat="46.02064" lon="3.50406">
        <ele>316.04</ele>
        <time>2013-08-21T06:02:44Z</time>
      </trkpt>
      <trkpt lat="46.02107" lon="3.50492">
        <ele>320.22</ele>
        <time>2013-08-21T06:03:15Z</time>
      </trkpt>
      <trkpt lat="46.02164" lon="3.5056">
        <ele>324.84</ele>
        <time>2013-08-21T06:03:48Z</time>
      </trkpt>
      <trkpt lat="46.02232" lon="3.50601">
        <ele>332.45</ele>
        <time>2013-08-21T06:04:16Z</time>
      </trkpt>
      <trkpt lat="46.02257" lon="3.507">
        <ele>338.43</ele>
        <time>2013-08-21T06:04:49Z</time>
      </trkpt>
      <trkpt lat="46.02262" lon="3.50807">
        <ele>342.35</ele>
        <time>2013-08-21T06:05:18Z</time>
      </trkpt>
      <trkpt lat="46.02274" lon="3.5091">
        <ele>346.29</ele>
        <time>2013-08-21T06:05:54Z</time>
      </trkpt>
      <trkpt lat="46.02276" lon="3.51015">
        <ele>351.19</ele>
        <time>2013-08-21T06:06:25Z</time>
      </trkpt>
      <trkpt lat="46.02332" lon="3.51082">
        <ele>355.35</ele>
        <time>2013-08-21T06:06:56Z</time>
      </trkpt>
      <trkpt lat="46.02389" lon="3.51148">
        <ele>361.01</ele>
        <time>2013-08-21T06:07:28Z</time>
      </trkpt>
      <trkpt lat="46.02345" lon="3.51232">
        <ele>373.93</ele>
        <time>2013-08-21T06:08:32Z</time>
      </trkpt>
      <trkpt lat="46.02303" lon="3.5132">
        <ele>379.39</ele>
        <time>2013-08-21T06:09:02Z</time>
      </trkpt>
      <trkpt lat="46.02267" lon="3.51412">
        <ele>384.67</ele>
        <time>2013-08-21T06:09:33Z</time>
      </trkpt>
      <trkpt lat="46.02228" lon="3.515">
        <ele>388.74</ele>
        <time>2013-08-21T06:10:01Z</time>
      </trkpt>
      <trkpt lat="46.0219" lon="3.5159">
        <ele>391.31</ele>
        <time>2013-08-21T06:10:30Z</time>
      </trkpt>
      <trkpt lat="46.02144" lon="3.5167">
        <ele>397.93</ele>
        <time>2013-08-21T06:10:58Z</time>
      </trkpt>
      <trkpt lat="46.02132" lon="3.51773">
        <ele>400.55</ele>
        <time>2013-08-21T06:11:27Z</time>
      </trkpt>
      <trkpt lat="46.02108" lon="3.51871">
        <ele>406.94</ele>
        <time>2013-08-21T06:12:02Z</time>
      </trkpt>
      <trkpt lat="46.02105" lon="3.51977">
        <ele>410.7</ele>
        <time>2013-08-21T06:12:28Z</time>
      </trkpt>
      <trkpt lat="46.02117" lon="3.52082">
        <ele>418.81</ele>
        <time>2013-08-21T06:13:06Z</time>
      </trkpt>
      <trkpt lat="46.02129" lon="3.52185">
        <ele>420.37</ele>
        <time>2013-08-21T06:13:36Z</time>
      </trkpt>
      <trkpt lat="46.02185" lon="3.52251">
        <ele>426.76</ele>
        <time>2013-08-21T06:14:18Z</time>
      </trkpt>
      <trkpt lat="46.0224" lon="3.5232">
        <ele>436.66</ele>
        <time>2013-08-21T06:14:46Z</time>
      </trkpt>
      <trkpt lat="46.02303" lon="3.52376">
        <ele>450.67</ele>
        <time>2013-08-21T06:15:19Z</time>
      </trkpt>
      <trkpt lat="46.02339" lon="3.52466">
        <ele>457.93</ele>
        <time>2013-08-21T06:16:06Z</time>
      </trkpt>
      <trkpt lat="46.02286" lon="3.52537">
        <ele>461.55</ele>
        <time>2013-08-21T06:18:08Z</time>
      </trkpt>
      <trkpt lat="46.02262" lon="3.52638">
        <ele>465.73</ele>
        <time>2013-08-21T06:18:50Z</time>
      </trkpt>
      <trkpt lat="46.02226" lon="3.52728">
        <ele>471.17</ele>
        <time>2013-08-21T06:19:22Z</time>
      </trkpt>
      <trkpt lat="46.02188" lon="3.5282">
        <ele>475.47</ele>
        <time>2013-08-21T06:19:57Z</time>
      </trkpt>
      <trkpt lat="46.02196" lon="3.52923">
        <ele>476.53</ele>
        <time>2013-08-21T06:20:35Z</time>
      </trkpt>
      <trkpt lat="46.0226" lon="3.52972">
        <ele>477.65</ele>
        <time>2013-08-21T06:21:10Z</time>
      </trkpt>
      <trkpt lat="46.02245" lon="3.53075">
        <ele>484.84</ele>
        <time>2013-08-21T06:21:45Z</time>
      </trkpt>
      <trkpt lat="46.02237" lon="3.53178">
        <ele>492.68</ele>
        <time>2013-08-21T06:22:15Z</time>
      </trkpt>
      <trkpt lat="46.02253" lon="3.53281">
        <ele>503.48</ele>
        <time>2013-08-21T06:22:51Z</time>
      </trkpt>
      <trkpt lat="46.02287" lon="3.53378">
        <ele>508.92</ele>
        <time>2013-08-21T06:24:49Z</time>
      </trkpt>
      <trkpt lat="46.02279" lon="3.53481">
        <ele>513.25</ele>
        <time>2013-08-21T06:25:00Z</time>
      </trkpt>
      <trkpt lat="46.02264" lon="3.53586">
        <ele>512.6</ele>
        <time>2013-08-21T06:25:13Z</time>
      </trkpt>
      <trkpt lat="46.02239" lon="3.53687">
        <ele>512.71</ele>
        <time>2013-08-21T06:25:43Z</time>
      </trkpt>
      <trkpt lat="46.02219" lon="3.53788">
        <ele>508.99</ele>
        <time>2013-08-21T06:26:20Z</time>
      </trkpt>
      <trkpt lat="46.02176" lon="3.53704">
        <ele>536.44</ele>
        <time>2013-08-21T06:28:14Z</time>
      </trkpt>
      <trkpt lat="46.02175" lon="3.53599">
        <ele>539.86</ele>
        <time>2013-08-21T06:29:55Z</time>
      </trkpt>
      <trkpt lat="46.02147" lon="3.53502">
        <ele>547.19</ele>
        <time>2013-08-21T06:30:52Z</time>
      </trkpt>
      <trkpt lat="46.02106" lon="3.53416">
        <ele>558.74</ele>
        <time>2013-08-21T06:31:46Z</time>
      </trkpt>
      <trkpt lat="46.02047" lon="3.53356">
        <ele>565.55</ele>
        <time>2013-08-21T06:33:09Z</time>
      </trkpt>
      <trkpt lat="46.02005" lon="3.53442">
        <ele>568.47</ele>
        <time>2013-08-21T06:38:33Z</time>
      </trkpt>
      <trkpt lat="46.01972" lon="3.53534">
        <ele>571.12</ele>
        <time>2013-08-21T06:39:16Z</time>
      </trkpt>
      <trkpt lat="46.01934" lon="3.53627">
        <ele>572.42</ele>
        <time>2013-08-21T06:39:40Z</time>
      </trkpt>
      <trkpt lat="46.01884" lon="3.53708">
        <ele>574.77</ele>
        <time>2013-08-21T06:40:05Z</time>
      </trkpt>
      <trkpt lat="46.01825" lon="3.53773">
        <ele>575.54</ele>
        <time>2013-08-21T06:40:20Z</time>
      </trkpt>
      <trkpt lat="46.01761" lon="3.53831">
        <ele>578.11</ele>
        <time>2013-08-21T06:40:49Z</time>
      </trkpt>
      <trkpt lat="46.01709" lon="3.53906">
        <ele>580.79</ele>
        <time>2013-08-21T06:41:16Z</time>
      </trkpt>
      <trkpt lat="46.01691" lon="3.54007">
        <ele>582.5</ele>
        <time>2013-08-21T06:41:43Z</time>
      </trkpt>
      <trkpt lat="46.01659" lon="3.54103">
        <ele>583.55</ele>
        <time>2013-08-21T06:42:06Z</time>
      </trkpt>
      <trkpt lat="46.01619" lon="3.54193">
        <ele>584.36</ele>
        <time>2013-08-21T06:42:38Z</time>
      </trkpt>
      <trkpt lat="46.01599" lon="3.54296">
        <ele>586.3</ele>
        <time>2013-08-21T06:42:57Z</time>
      </trkpt>
      <trkpt lat="46.01569" lon="3.54393">
        <ele>584.98</ele>
        <time>2013-08-21T06:43:17Z</time>
      </trkpt>
      <trkpt lat="46.01548" lon="3.54494">
        <ele>584.55</ele>
        <time>2013-08-21T06:43:41Z</time>
      </trkpt>
      <trkpt lat="46.01515" lon="3.54588">
        <ele>583.56</ele>
        <time>2013-08-21T06:44:03Z</time>
      </trkpt>
      <trkpt lat="46.01457" lon="3.54655">
        <ele>582.55</ele>
        <time>2013-08-21T06:44:35Z</time>
      </trkpt>
      <trkpt lat="46.01388" lon="3.54691">
        <ele>574.47</ele>
        <time>2013-08-21T06:44:49Z</time>
      </trkpt>
      <trkpt lat="46.01315" lon="3.54674">
        <ele>566.83</ele>
        <time>2013-08-21T06:45:09Z</time>
      </trkpt>
      <trkpt lat="46.01256" lon="3.54614">
        <ele>565.87</ele>
        <time>2013-08-21T06:45:36Z</time>
      </trkpt>
      <trkpt lat="46.01184" lon="3.54599">
        <ele>566.52</ele>
        <time>2013-08-21T06:46:00Z</time>
      </trkpt>
      <trkpt lat="46.01139" lon="3.54517">
        <ele>568.91</ele>
        <time>2013-08-21T06:46:20Z</time>
      </trkpt>
      <trkpt lat="46.01101" lon="3.54427">
        <ele>572.34</ele>
        <time>2013-08-21T06:46:44Z</time>
      </trkpt>
      <trkpt lat="46.01048" lon="3.54352">
        <ele>576.14</ele>
        <time>2013-08-21T06:47:08Z</time>
      </trkpt>
      <trkpt lat="46.01041" lon="3.54247">
        <ele>579.53</ele>
        <time>2013-08-21T06:47:40Z</time>
      </trkpt>
      <trkpt lat="46.01075" lon="3.54152">
        <ele>579.52</ele>
        <time>2013-08-21T06:48:02Z</time>
      </trkpt>
      <trkpt lat="46.01101" lon="3.54056">
        <ele>582.48</ele>
        <time>2013-08-21T06:48:22Z</time>
      </trkpt>
      <trkpt lat="46.01047" lon="3.53985">
        <ele>581.77</ele>
        <time>2013-08-21T06:48:53Z</time>
      </trkpt>
      <trkpt lat="46.00971" lon="3.54002">
        <ele>574.87</ele>
        <time>2013-08-21T06:49:08Z</time>
      </trkpt>
      <trkpt lat="46.00895" lon="3.54011">
        <ele>574.51</ele>
        <time>2013-08-21T06:49:25Z</time>
      </trkpt>
      <trkpt lat="46.00821" lon="3.54019">
        <ele>572.7</ele>
        <time>2013-08-21T06:49:42Z</time>
      </trkpt>
      <trkpt lat="46.00748" lon="3.54026">
        <ele>569.17</ele>
        <time>2013-08-21T06:49:56Z</time>
      </trkpt>
      <trkpt lat="46.00688" lon="3.54088">
        <ele>568.56</ele>
        <time>2013-08-21T06:50:10Z</time>
      </trkpt>
      <trkpt lat="46.00642" lon="3.54178">
        <ele>566.79</ele>
        <time>2013-08-21T06:50:22Z</time>
      </trkpt>
      <trkpt lat="46.00612" lon="3.54279">
        <ele>565.98</ele>
        <time>2013-08-21T06:50:33Z</time>
      </trkpt>
      <trkpt lat="46.0057" lon="3.54369">
        <ele>564.66</ele>
        <time>2013-08-21T06:50:47Z</time>
      </trkpt>
      <trkpt lat="46.00502" lon="3.54414">
        <ele>561.06</ele>
        <time>2013-08-21T06:51:04Z</time>
      </trkpt>
      <trkpt lat="46.00473" lon="3.54318">
        <ele>558.13</ele>
        <time>2013-08-21T06:51:30Z</time>
      </trkpt>
      <trkpt lat="46.00468" lon="3.54215">
        <ele>556.59</ele>
        <time>2013-08-21T06:51:50Z</time>
      </trkpt>
      <trkpt lat="46.00415" lon="3.54144">
        <ele>555.55</ele>
        <time>2013-08-21T06:52:19Z</time>
      </trkpt>
      <trkpt lat="46.00359" lon="3.54077">
        <ele>555.16</ele>
        <time>2013-08-21T06:52:35Z</time>
      </trkpt>
      <trkpt lat="46.00299" lon="3.54015">
        <ele>551.44</ele>
        <time>2013-08-21T06:52:58Z</time>
      </trkpt>
      <trkpt lat="46.00228" lon="3.53989">
        <ele>550.73</ele>
        <time>2013-08-21T06:53:22Z</time>
      </trkpt>
      <trkpt lat="46.00155" lon="3.53966">
        <ele>549.13</ele>
        <time>2013-08-21T06:53:41Z</time>
      </trkpt>
      <trkpt lat="46.00079" lon="3.53979">
        <ele>544.12</ele>
        <time>2013-08-21T06:53:56Z</time>
      </trkpt>
      <trkpt lat="46.00006" lon="3.53998">
        <ele>539.84</ele>
        <time>2013-08-21T06:54:12Z</time>
      </trkpt>
      <trkpt lat="45.99936" lon="3.54024">
        <ele>541.25</ele>
        <time>2013-08-21T06:54:25Z</time>
      </trkpt>
      <trkpt lat="45.99862" lon="3.54047">
        <ele>542.29</ele>
        <time>2013-08-21T06:54:51Z</time>
      </trkpt>
      <trkpt lat="45.99787" lon="3.54062">
        <ele>536.99</ele>
        <time>2013-08-21T06:55:12Z</time>
      </trkpt>
      <trkpt lat="45.99843" lon="3.54131">
        <ele>526.01</ele>
        <time>2013-08-21T06:56:10Z</time>
      </trkpt>
      <trkpt lat="45.99766" lon="3.54152">
        <ele>539.41</ele>
        <time>2013-08-21T06:56:43Z</time>
      </trkpt>
      <trkpt lat="45.99699" lon="3.54204">
        <ele>537.29</ele>
        <time>2013-08-21T06:56:55Z</time>
      </trkpt>
      <trkpt lat="45.99626" lon="3.54223">
        <ele>531.07</ele>
        <time>2013-08-21T06:57:36Z</time>
      </trkpt>
      <trkpt lat="45.99558" lon="3.54264">
        <ele>515.04</ele>
        <time>2013-08-21T06:57:47Z</time>
      </trkpt>
      <trkpt lat="45.99484" lon="3.54273">
        <ele>507.17</ele>
        <time>2013-08-21T06:57:59Z</time>
      </trkpt>
      <trkpt lat="45.99409" lon="3.54275">
        <ele>504.29</ele>
        <time>2013-08-21T06:58:11Z</time>
      </trkpt>
      <trkpt lat="45.99338" lon="3.54298">
        <ele>508.93</ele>
        <time>2013-08-21T06:58:22Z</time>
      </trkpt>
      <trkpt lat="45.99266" lon="3.54283">
        <ele>503.21</ele>
        <time>2013-08-21T06:58:32Z</time>
      </trkpt>
      <trkpt lat="45.992" lon="3.54234">
        <ele>480.54</ele>
        <time>2013-08-21T06:58:48Z</time>
      </trkpt>
      <trkpt lat="45.99132" lon="3.54191">
        <ele>475.38</ele>
        <time>2013-08-21T06:59:07Z</time>
      </trkpt>
      <trkpt lat="45.99089" lon="3.54107">
        <ele>468.31</ele>
        <time>2013-08-21T06:59:23Z</time>
      </trkpt>
      <trkpt lat="45.99057" lon="3.54009">
        <ele>431.45</ele>
        <time>2013-08-21T06:59:38Z</time>
      </trkpt>
      <trkpt lat="45.99041" lon="3.53904">
        <ele>409.97</ele>
        <time>2013-08-21T06:59:56Z</time>
      </trkpt>
      <trkpt lat="45.98975" lon="3.53951">
        <ele>372.7</ele>
        <time>2013-08-21T07:02:02Z</time>
      </trkpt>
      <trkpt lat="45.98906" lon="3.53987">
        <ele>368.69</ele>
        <time>2013-08-21T07:02:29Z</time>
      </trkpt>
      <trkpt lat="45.98837" lon="3.54034">
        <ele>369.93</ele>
        <time>2013-08-21T07:02:53Z</time>
      </trkpt>
      <trkpt lat="45.98776" lon="3.54097">
        <ele>373.85</ele>
        <time>2013-08-21T07:03:14Z</time>
      </trkpt>
      <trkpt lat="45.9871" lon="3.54146">
        <ele>378.01</ele>
        <time>2013-08-21T07:03:39Z</time>
      </trkpt>
      <trkpt lat="45.98677" lon="3.54243">
        <ele>383.46</ele>
        <time>2013-08-21T07:04:02Z</time>
      </trkpt>
      <trkpt lat="45.98678" lon="3.54348">
        <ele>381.69</ele>
        <time>2013-08-21T07:04:30Z</time>
      </trkpt>
      <trkpt lat="45.98671" lon="3.54451">
        <ele>381.55</ele>
        <time>2013-08-21T07:04:58Z</time>
      </trkpt>
      <trkpt lat="45.98677" lon="3.54554">
        <ele>379.57</ele>
        <time>2013-08-21T07:05:18Z</time>
      </trkpt>
      <trkpt lat="45.9861" lon="3.54599">
        <ele>384.51</ele>
        <time>2013-08-21T07:05:48Z</time>
      </trkpt>
      <trkpt lat="45.98553" lon="3.54663">
        <ele>390.11</ele>
        <time>2013-08-21T07:06:20Z</time>
      </trkpt>
      <trkpt lat="45.98485" lon="3.54706">
        <ele>395.75</ele>
        <time>2013-08-21T07:06:44Z</time>
      </trkpt>
      <trkpt lat="45.98431" lon="3.54775">
        <ele>407.05</ele>
        <time>2013-08-21T07:07:10Z</time>
      </trkpt>
      <trkpt lat="45.98419" lon="3.54878">
        <ele>407.84</ele>
        <time>2013-08-21T07:07:26Z</time>
      </trkpt>
      <trkpt lat="45.98406" lon="3.54983">
        <ele>408.55</ele>
        <time>2013-08-21T07:07:49Z</time>
      </trkpt>
      <trkpt lat="45.98413" lon="3.55086">
        <ele>410.21</ele>
        <time>2013-08-21T07:08:23Z</time>
      </trkpt>
      <trkpt lat="45.98357" lon="3.55152">
        <ele>418.81</ele>
        <time>2013-08-21T07:09:15Z</time>
      </trkpt>
      <trkpt lat="45.98283" lon="3.55157">
        <ele>437.13</ele>
        <time>2013-08-21T07:10:29Z</time>
      </trkpt>
      <trkpt lat="45.9821" lon="3.55159">
        <ele>456.5</ele>
        <time>2013-08-21T07:11:21Z</time>
      </trkpt>
      <trkpt lat="45.98262" lon="3.55088">
        <ele>484.28</ele>
        <time>2013-08-21T07:12:52Z</time>
      </trkpt>
      <trkpt lat="45.98196" lon="3.55047">
        <ele>480.52</ele>
        <time>2013-08-21T07:15:06Z</time>
      </trkpt>
      <trkpt lat="45.98124" lon="3.55039">
        <ele>485.25</ele>
        <time>2013-08-21T07:15:40Z</time>
      </trkpt>
      <trkpt lat="45.98051" lon="3.55045">
        <ele>496.13</ele>
        <time>2013-08-21T07:16:24Z</time>
      </trkpt>
      <trkpt lat="45.97978" lon="3.55058">
        <ele>511.84</ele>
        <time>2013-08-21T07:17:24Z</time>
      </trkpt>
      <trkpt lat="45.98004" lon="3.54961">
        <ele>519.27</ele>
        <time>2013-08-21T07:18:11Z</time>
      </trkpt>
      <trkpt lat="45.97997" lon="3.54858">
        <ele>519.63</ele>
        <time>2013-08-21T07:18:37Z</time>
      </trkpt>
      <trkpt lat="45.97926" lon="3.54839">
        <ele>516.32</ele>
        <time>2013-08-21T07:19:41Z</time>
      </trkpt>
      <trkpt lat="45.97935" lon="3.54736">
        <ele>520.29</ele>
        <time>2013-08-21T07:21:19Z</time>
      </trkpt>
      <trkpt lat="45.97981" lon="3.54657">
        <ele>527.29</ele>
        <time>2013-08-21T07:21:57Z</time>
      </trkpt>
      <trkpt lat="45.98013" lon="3.54562">
        <ele>531.78</ele>
        <time>2013-08-21T07:22:35Z</time>
      </trkpt>
      <trkpt lat="45.97993" lon="3.54461">
        <ele>533.1</ele>
        <time>2013-08-21T07:23:04Z</time>
      </trkpt>
      <trkpt lat="45.97985" lon="3.54356">
        <ele>529.55</ele>
        <time>2013-08-21T07:23:56Z</time>
      </trkpt>
      <trkpt lat="45.98029" lon="3.54273">
        <ele>532.68</ele>
        <time>2013-08-21T07:24:32Z</time>
      </trkpt>
      <trkpt lat="45.98043" lon="3.5417">
        <ele>528.6</ele>
        <time>2013-08-21T07:25:25Z</time>
      </trkpt>
      <trkpt lat="45.98015" lon="3.54071">
        <ele>523.14</ele>
        <time>2013-08-21T07:30:06Z</time>
      </trkpt>
      <trkpt lat="45.97967" lon="3.53992">
        <ele>515.36</ele>
        <time>2013-08-21T07:30:24Z</time>
      </trkpt>
      <trkpt lat="45.97911" lon="3.53923">
        <ele>511.79</ele>
        <time>2013-08-21T07:30:39Z</time>
      </trkpt>
      <trkpt lat="45.97841" lon="3.53891">
        <ele>508.58</ele>
        <time>2013-08-21T07:31:23Z</time>
      </trkpt>
      <trkpt lat="45.97769" lon="3.53869">
        <ele>509.26</ele>
        <time>2013-08-21T07:31:41Z</time>
      </trkpt>
      <trkpt lat="45.97715" lon="3.53798">
        <ele>498.53</ele>
        <time>2013-08-21T07:31:57Z</time>
      </trkpt>
      <trkpt lat="45.9768" lon="3.53704">
        <ele>488.61</ele>
        <time>2013-08-21T07:32:27Z</time>
      </trkpt>
      <trkpt lat="45.97716" lon="3.5361">
        <ele>483.26</ele>
        <time>2013-08-21T07:32:38Z</time>
      </trkpt>
      <trkpt lat="45.97767" lon="3.53526">
        <ele>477.81</ele>
        <time>2013-08-21T07:32:51Z</time>
      </trkpt>
      <trkpt lat="45.97753" lon="3.53423">
        <ele>474.57</ele>
        <time>2013-08-21T07:33:22Z</time>
      </trkpt>
      <trkpt lat="45.97749" lon="3.53316">
        <ele>474.38</ele>
        <time>2013-08-21T07:33:51Z</time>
      </trkpt>
      <trkpt lat="45.97691" lon="3.53236">
        <ele>474.55</ele>
        <time>2013-08-21T07:34:26Z</time>
      </trkpt>
      <trkpt lat="45.97638" lon="3.53163">
        <ele>474.55</ele>
        <time>2013-08-21T07:35:15Z</time>
      </trkpt>
      <trkpt lat="45.97566" lon="3.5315">
        <ele>479.17</ele>
        <time>2013-08-21T07:36:23Z</time>
      </trkpt>
      <trkpt lat="45.97489" lon="3.5315">
        <ele>488.01</ele>
        <time>2013-08-21T07:36:56Z</time>
      </trkpt>
      <trkpt lat="45.97423" lon="3.53103">
        <ele>492.35</ele>
        <time>2013-08-21T07:38:49Z</time>
      </trkpt>
      <trkpt lat="45.97364" lon="3.53039">
        <ele>487.56</ele>
        <time>2013-08-21T07:40:07Z</time>
      </trkpt>
      <trkpt lat="45.973" lon="3.52985">
        <ele>483.65</ele>
        <time>2013-08-21T07:40:25Z</time>
      </trkpt>
      <trkpt lat="45.97225" lon="3.52962">
        <ele>481.2</ele>
        <time>2013-08-21T07:40:37Z</time>
      </trkpt>
      <trkpt lat="45.97211" lon="3.5285">
        <ele>474.94</ele>
        <time>2013-08-21T07:42:46Z</time>
      </trkpt>
      <trkpt lat="45.97212" lon="3.52745">
        <ele>467.15</ele>
        <time>2013-08-21T07:43:02Z</time>
      </trkpt>
      <trkpt lat="45.97233" lon="3.52642">
        <ele>455.48</ele>
        <time>2013-08-21T07:43:18Z</time>
      </trkpt>
      <trkpt lat="45.97259" lon="3.52543">
        <ele>448.81</ele>
        <time>2013-08-21T07:43:35Z</time>
      </trkpt>
      <trkpt lat="45.97319" lon="3.52479">
        <ele>443.15</ele>
        <time>2013-08-21T07:43:52Z</time>
      </trkpt>
      <trkpt lat="45.97371" lon="3.52406">
        <ele>427.35</ele>
        <time>2013-08-21T07:44:07Z</time>
      </trkpt>
      <trkpt lat="45.97417" lon="3.52322">
        <ele>402.92</ele>
        <time>2013-08-21T07:45:07Z</time>
      </trkpt>
      <trkpt lat="45.97467" lon="3.52247">
        <ele>392.68</ele>
        <time>2013-08-21T07:45:36Z</time>
      </trkpt>
      <trkpt lat="45.97534" lon="3.52206">
        <ele>362</ele>
        <time>2013-08-21T07:48:57Z</time>
      </trkpt>
      <trkpt lat="45.97603" lon="3.52165">
        <ele>350.14</ele>
        <time>2013-08-21T07:49:09Z</time>
      </trkpt>
      <trkpt lat="45.9764" lon="3.52256">
        <ele>336.59</ele>
        <time>2013-08-21T07:49:40Z</time>
      </trkpt>
      <trkpt lat="45.97671" lon="3.52352">
        <ele>323.18</ele>
        <time>2013-08-21T07:50:02Z</time>
      </trkpt>
      <trkpt lat="45.97721" lon="3.52429">
        <ele>321.55</ele>
        <time>2013-08-21T07:50:26Z</time>
      </trkpt>
      <trkpt lat="45.97767" lon="3.52513">
        <ele>321.99</ele>
        <time>2013-08-21T07:50:52Z</time>
      </trkpt>
      <trkpt lat="45.97802" lon="3.52603">
        <ele>322.55</ele>
        <time>2013-08-21T07:51:15Z</time>
      </trkpt>
      <trkpt lat="45.97871" lon="3.52638">
        <ele>324.41</ele>
        <time>2013-08-21T07:51:33Z</time>
      </trkpt>
      <trkpt lat="45.97929" lon="3.5271">
        <ele>326.41</ele>
        <time>2013-08-21T07:51:54Z</time>
      </trkpt>
      <trkpt lat="45.97922" lon="3.52607">
        <ele>330.44</ele>
        <time>2013-08-21T07:52:45Z</time>
      </trkpt>
      <trkpt lat="45.97866" lon="3.52535">
        <ele>332.53</ele>
        <time>2013-08-21T07:53:14Z</time>
      </trkpt>
      <trkpt lat="45.97824" lon="3.5244">
        <ele>337.59</ele>
        <time>2013-08-21T07:53:48Z</time>
      </trkpt>
      <trkpt lat="45.97851" lon="3.52344">
        <ele>345.49</ele>
        <time>2013-08-21T07:54:40Z</time>
      </trkpt>
      <trkpt lat="45.97881" lon="3.52247">
        <ele>348.11</ele>
        <time>2013-08-21T07:55:10Z</time>
      </trkpt>
      <trkpt lat="45.97946" lon="3.522">
        <ele>351.93</ele>
        <time>2013-08-21T07:55:47Z</time>
      </trkpt>
      <trkpt lat="45.98014" lon="3.52161">
        <ele>352.11</ele>
        <time>2013-08-21T07:56:19Z</time>
      </trkpt>
      <trkpt lat="45.98086" lon="3.52148">
        <ele>355.93</ele>
        <time>2013-08-21T07:56:46Z</time>
      </trkpt>
      <trkpt lat="45.9816" lon="3.52133">
        <ele>374.09</ele>
        <time>2013-08-21T07:57:04Z</time>
      </trkpt>
      <trkpt lat="45.98231" lon="3.52112">
        <ele>376.91</ele>
        <time>2013-08-21T07:57:24Z</time>
      </trkpt>
      <trkpt lat="45.98307" lon="3.52099">
        <ele>382.72</ele>
        <time>2013-08-21T07:57:40Z</time>
      </trkpt>
      <trkpt lat="45.98383" lon="3.52093">
        <ele>383.68</ele>
        <time>2013-08-21T07:57:55Z</time>
      </trkpt>
      <trkpt lat="45.98415" lon="3.51998">
        <ele>397.98</ele>
        <time>2013-08-21T07:58:51Z</time>
      </trkpt>
      <trkpt lat="45.98372" lon="3.51902">
        <ele>408.44</ele>
        <time>2013-08-21T07:59:27Z</time>
      </trkpt>
      <trkpt lat="45.98397" lon="3.51805">
        <ele>411.55</ele>
        <time>2013-08-21T07:59:52Z</time>
      </trkpt>
      <trkpt lat="45.98459" lon="3.51749">
        <ele>409.99</ele>
        <time>2013-08-21T08:00:19Z</time>
      </trkpt>
      <trkpt lat="45.98519" lon="3.51685">
        <ele>408.06</ele>
        <time>2013-08-21T08:00:38Z</time>
      </trkpt>
      <trkpt lat="45.98582" lon="3.51625">
        <ele>404.89</ele>
        <time>2013-08-21T08:00:51Z</time>
      </trkpt>
      <trkpt lat="45.98659" lon="3.51595">
        <ele>406.65</ele>
        <time>2013-08-21T08:01:02Z</time>
      </trkpt>
      <trkpt lat="45.98732" lon="3.51575">
        <ele>392.03</ele>
        <time>2013-08-21T08:01:09Z</time>
      </trkpt>
      <trkpt lat="45.98804" lon="3.5156">
        <ele>386.16</ele>
        <time>2013-08-21T08:01:18Z</time>
      </trkpt>
      <trkpt lat="45.98832" lon="3.51464">
        <ele>396.13</ele>
        <time>2013-08-21T08:01:29Z</time>
      </trkpt>
      <trkpt lat="45.98814" lon="3.51357">
        <ele>401.47</ele>
        <time>2013-08-21T08:01:58Z</time>
      </trkpt>
      <trkpt lat="45.98886" lon="3.51344">
        <ele>402.3</ele>
        <time>2013-08-21T08:02:43Z</time>
      </trkpt>
      <trkpt lat="45.98958" lon="3.51369">
        <ele>404.3</ele>
        <time>2013-08-21T08:03:22Z</time>
      </trkpt>
      <trkpt lat="45.99021" lon="3.51444">
        <ele>405.8</ele>
        <time>2013-08-21T08:04:06Z</time>
      </trkpt>
      <trkpt lat="45.99046" lon="3.51543">
        <ele>411.15</ele>
        <time>2013-08-21T08:04:48Z</time>
      </trkpt>
      <trkpt lat="45.98987" lon="3.51605">
        <ele>422.14</ele>
        <time>2013-08-21T08:05:50Z</time>
      </trkpt>
      <trkpt lat="45.99015" lon="3.51702">
        <ele>431.57</ele>
        <time>2013-08-21T08:06:41Z</time>
      </trkpt>
      <trkpt lat="45.99055" lon="3.5179">
        <ele>446.57</ele>
        <time>2013-08-21T08:07:57Z</time>
      </trkpt>
      <trkpt lat="45.98981" lon="3.51796">
        <ele>455.87</ele>
        <time>2013-08-21T08:08:46Z</time>
      </trkpt>
      <trkpt lat="45.98922" lon="3.51856">
        <ele>464.32</ele>
        <time>2013-08-21T08:09:06Z</time>
      </trkpt>
      <trkpt lat="45.98865" lon="3.51923">
        <ele>467.31</ele>
        <time>2013-08-21T08:09:30Z</time>
      </trkpt>
      <trkpt lat="45.98807" lon="3.5199">
        <ele>469.76</ele>
        <time>2013-08-21T08:09:56Z</time>
      </trkpt>
      <trkpt lat="45.98872" lon="3.52037">
        <ele>486.77</ele>
        <time>2013-08-21T08:12:20Z</time>
      </trkpt>
      <trkpt lat="45.98941" lon="3.52067">
        <ele>496.04</ele>
        <time>2013-08-21T08:13:01Z</time>
      </trkpt>
      <trkpt lat="45.99011" lon="3.52095">
        <ele>499.53</ele>
        <time>2013-08-21T08:13:38Z</time>
      </trkpt>
      <trkpt lat="45.99077" lon="3.52144">
        <ele>501.76</ele>
        <time>2013-08-21T08:14:20Z</time>
      </trkpt>
      <trkpt lat="45.99129" lon="3.52219">
        <ele>522.74</ele>
        <time>2013-08-21T08:15:50Z</time>
      </trkpt>
      <trkpt lat="45.99184" lon="3.5229">
        <ele>527.65</ele>
        <time>2013-08-21T08:16:25Z</time>
      </trkpt>
      <trkpt lat="45.99227" lon="3.52374">
        <ele>534.9</ele>
        <time>2013-08-21T08:16:50Z</time>
      </trkpt>
      <trkpt lat="45.99278" lon="3.52449">
        <ele>544.09</ele>
        <time>2013-08-21T08:17:25Z</time>
      </trkpt>
      <trkpt lat="45.99294" lon="3.52556">
        <ele>548.58</ele>
        <time>2013-08-21T08:22:22Z</time>
      </trkpt>
      <trkpt lat="45.9933" lon="3.52653">
        <ele>548.53</ele>
        <time>2013-08-21T08:22:43Z</time>
      </trkpt>
      <trkpt lat="45.99393" lon="3.52704">
        <ele>550.22</ele>
        <time>2013-08-21T08:23:02Z</time>
      </trkpt>
      <trkpt lat="45.99461" lon="3.52751">
        <ele>552.18</ele>
        <time>2013-08-21T08:23:23Z</time>
      </trkpt>
      <trkpt lat="45.99529" lon="3.52796">
        <ele>558.26</ele>
        <time>2013-08-21T08:23:43Z</time>
      </trkpt>
      <trkpt lat="45.99603" lon="3.52807">
        <ele>560.42</ele>
        <time>2013-08-21T08:23:56Z</time>
      </trkpt>
      <trkpt lat="45.99674" lon="3.52826">
        <ele>561.5</ele>
        <time>2013-08-21T08:24:12Z</time>
      </trkpt>
      <trkpt lat="45.99722" lon="3.52745">
        <ele>557.33</ele>
        <time>2013-08-21T08:24:35Z</time>
      </trkpt>
      <trkpt lat="45.99779" lon="3.52674">
        <ele>557.39</ele>
        <time>2013-08-21T08:24:48Z</time>
      </trkpt>
      <trkpt lat="45.99834" lon="3.52605">
        <ele>552.44</ele>
        <time>2013-08-21T08:25:00Z</time>
      </trkpt>
      <trkpt lat="45.99872" lon="3.52509">
        <ele>548.1</ele>
        <time>2013-08-21T08:25:14Z</time>
      </trkpt>
      <trkpt lat="45.99939" lon="3.52468">
        <ele>534.34</ele>
        <time>2013-08-21T08:25:31Z</time>
      </trkpt>
      <trkpt lat="46.00014" lon="3.52489">
        <ele>523.52</ele>
        <time>2013-08-21T08:25:47Z</time>
      </trkpt>
      <trkpt lat="46.00087" lon="3.52496">
        <ele>517.91</ele>
        <time>2013-08-21T08:26:01Z</time>
      </trkpt>
      <trkpt lat="46.00141" lon="3.52571">
        <ele>516.13</ele>
        <time>2013-08-21T08:26:27Z</time>
      </trkpt>
      <trkpt lat="46.00172" lon="3.52477">
        <ele>518.47</ele>
        <time>2013-08-21T08:27:44Z</time>
      </trkpt>
      <trkpt lat="46.00119" lon="3.52399">
        <ele>518.87</ele>
        <time>2013-08-21T08:28:06Z</time>
      </trkpt>
      <trkpt lat="46.00104" lon="3.52296">
        <ele>518.56</ele>
        <time>2013-08-21T08:28:20Z</time>
      </trkpt>
      <trkpt lat="46.00115" lon="3.52191">
        <ele>517.63</ele>
        <time>2013-08-21T08:28:35Z</time>
      </trkpt>
      <trkpt lat="46.00093" lon="3.52088">
        <ele>517.6</ele>
        <time>2013-08-21T08:28:51Z</time>
      </trkpt>
      <trkpt lat="46.00145" lon="3.52017">
        <ele>516.56</ele>
        <time>2013-08-21T08:29:09Z</time>
      </trkpt>
      <trkpt lat="46.00208" lon="3.51955">
        <ele>516.55</ele>
        <time>2013-08-21T08:29:21Z</time>
      </trkpt>
      <trkpt lat="46.0026" lon="3.51874">
        <ele>516.55</ele>
        <time>2013-08-21T08:29:32Z</time>
      </trkpt>
      <trkpt lat="46.00312" lon="3.51796">
        <ele>515.54</ele>
        <time>2013-08-21T08:29:41Z</time>
      </trkpt>
      <trkpt lat="46.00368" lon="3.51717">
        <ele>509.77</ele>
        <time>2013-08-21T08:29:50Z</time>
      </trkpt>
      <trkpt lat="46.004" lon="3.51618">
        <ele>507.07</ele>
        <time>2013-08-21T08:30:01Z</time>
      </trkpt>
      <trkpt lat="46.00439" lon="3.51528">
        <ele>507.9</ele>
        <time>2013-08-21T08:30:15Z</time>
      </trkpt>
      <trkpt lat="46.00505" lon="3.51483">
        <ele>489.14</ele>
        <time>2013-08-21T08:31:38Z</time>
      </trkpt>
      <trkpt lat="46.00576" lon="3.51464">
        <ele>475</ele>
        <time>2013-08-21T08:31:50Z</time>
      </trkpt>
      <trkpt lat="46.00648" lon="3.51449">
        <ele>470.82</ele>
        <time>2013-08-21T08:32:03Z</time>
      </trkpt>
      <trkpt lat="46.00705" lon="3.51384">
        <ele>472.18</ele>
        <time>2013-08-21T08:32:12Z</time>
      </trkpt>
      <trkpt lat="46.0075" lon="3.51299">
        <ele>472.53</ele>
        <time>2013-08-21T08:32:21Z</time>
      </trkpt>
      <trkpt lat="46.00759" lon="3.51196">
        <ele>468.24</ele>
        <time>2013-08-21T08:33:04Z</time>
      </trkpt>
      <trkpt lat="46.00764" lon="3.51088">
        <ele>455.03</ele>
        <time>2013-08-21T08:33:30Z</time>
      </trkpt>
      <trkpt lat="46.00804" lon="3.51">
        <ele>443.66</ele>
        <time>2013-08-21T08:33:43Z</time>
      </trkpt>
      <trkpt lat="46.00875" lon="3.5097">
        <ele>438.25</ele>
        <time>2013-08-21T08:33:56Z</time>
      </trkpt>
      <trkpt lat="46.00928" lon="3.50897">
        <ele>408.09</ele>
        <time>2013-08-21T08:35:38Z</time>
      </trkpt>
      <trkpt lat="46.00979" lon="3.50979">
        <ele>405.8</ele>
        <time>2013-08-21T08:35:57Z</time>
      </trkpt>
      <trkpt lat="46.01055" lon="3.50996">
        <ele>409.2</ele>
        <time>2013-08-21T08:36:12Z</time>
      </trkpt>
      <trkpt lat="46.01126" lon="3.50972">
        <ele>413.5</ele>
        <time>2013-08-21T08:36:28Z</time>
      </trkpt>
      <trkpt lat="46.01192" lon="3.50929">
        <ele>416.55</ele>
        <time>2013-08-21T08:37:19Z</time>
      </trkpt>
      <trkpt lat="46.01204" lon="3.51037">
        <ele>415.87</ele>
        <time>2013-08-21T08:37:45Z</time>
      </trkpt>
      <trkpt lat="46.01205" lon="3.51144">
        <ele>414.65</ele>
        <time>2013-08-21T08:37:55Z</time>
      </trkpt>
      <trkpt lat="46.01233" lon="3.51048">
        <ele>419.93</ele>
        <time>2013-08-21T08:38:55Z</time>
      </trkpt>
      <trkpt lat="46.01266" lon="3.50955">
        <ele>416.61</ele>
        <time>2013-08-21T08:39:07Z</time>
      </trkpt>
      <trkpt lat="46.01277" lon="3.50852">
        <ele>400.51</ele>
        <time>2013-08-21T08:39:20Z</time>
      </trkpt>
      <trkpt lat="46.01287" lon="3.50747">
        <ele>386.09</ele>
        <time>2013-08-21T08:39:35Z</time>
      </trkpt>
      <trkpt lat="46.01288" lon="3.50642">
        <ele>378.55</ele>
        <time>2013-08-21T08:39:57Z</time>
      </trkpt>
      <trkpt lat="46.01351" lon="3.50691">
        <ele>359.13</ele>
        <time>2013-08-21T08:40:39Z</time>
      </trkpt>
      <trkpt lat="46.01381" lon="3.50595">
        <ele>365.83</ele>
        <time>2013-08-21T08:40:58Z</time>
      </trkpt>
      <trkpt lat="46.01389" lon="3.50492">
        <ele>364.19</ele>
        <time>2013-08-21T08:41:19Z</time>
      </trkpt>
      <trkpt lat="46.01451" lon="3.50436">
        <ele>357.83</ele>
        <time>2013-08-21T08:41:58Z</time>
      </trkpt>
      <trkpt lat="46.01524" lon="3.50434">
        <ele>355.55</ele>
        <time>2013-08-21T08:42:32Z</time>
      </trkpt>
      <trkpt lat="46.01571" lon="3.50352">
        <ele>363.02</ele>
        <time>2013-08-21T08:43:27Z</time>
      </trkpt>
      <trkpt lat="46.0153" lon="3.50256">
        <ele>362.4</ele>
        <time>2013-08-21T08:43:41Z</time>
      </trkpt>
      <trkpt lat="46.01589" lon="3.50191">
        <ele>350.31</ele>
        <time>2013-08-21T08:44:11Z</time>
      </trkpt>
      <trkpt lat="46.01663" lon="3.50196">
        <ele>349.4</ele>
        <time>2013-08-21T08:44:28Z</time>
      </trkpt>
      <trkpt lat="46.01738" lon="3.50213">
        <ele>351.27</ele>
        <time>2013-08-21T08:44:42Z</time>
      </trkpt>
      <trkpt lat="46.01806" lon="3.50251">
        <ele>351.42</ele>
        <time>2013-08-21T08:44:55Z</time>
      </trkpt>
      <trkpt lat="46.01878" lon="3.50301">
        <ele>351.51</ele>
        <time>2013-08-21T08:45:09Z</time>
      </trkpt>
      <trkpt lat="46.01943" lon="3.5035">
        <ele>354.72</ele>
        <time>2013-08-21T08:45:23Z</time>
      </trkpt>
      <trkpt lat="46.02001" lon="3.50415">
        <ele>346.99</ele>
        <time>2013-08-21T08:45:35Z</time>
      </trkpt>
      <trkpt lat="46.02063" lon="3.50361">
        <ele>335.47</ele>
        <time>2013-08-21T08:46:35Z</time>
      </trkpt>
      <trkpt lat="46.02102" lon="3.50266">
        <ele>336.01</ele>
        <time>2013-08-21T08:46:43Z</time>
      </trkpt>
      <trkpt lat="46.02108" lon="3.50155">
        <ele>334.66</ele>
        <time>2013-08-21T08:46:51Z</time>
      </trkpt>
      <trkpt lat="46.02106" lon="3.50048">
        <ele>328.58</ele>
        <time>2013-08-21T08:46:59Z</time>
      </trkpt>
      <trkpt lat="46.02083" lon="3.49947">
        <ele>317.83</ele>
        <time>2013-08-21T08:47:08Z</time>
      </trkpt>
      <trkpt lat="46.02073" lon="3.49844">
        <ele>311.61</ele>
        <time>2013-08-21T08:47:18Z</time>
      </trkpt>
      <trkpt lat="46.02082" lon="3.49736">
        <ele>308.89</ele>
        <time>2013-08-21T08:47:29Z</time>
      </trkpt>
      <trkpt lat="46.02108" lon="3.49636">
        <ele>307.69</ele>
        <time>2013-08-21T08:47:43Z</time>
      </trkpt>
    </trkseg>
  </trk>
</gpx>